createdAt,value
2018-10-19T00:00:36.549Z,29.07
2018-10-19T00:03:11.426Z,27.00
2018-10-19T00:05:46.299Z,29.70
2018-10-19T00:08:21.024Z,30.40
2018-10-19T00:10:55.800Z,29.23
2018-10-19T00:13:31.387Z,36.47
2018-10-19T00:16:06.219Z,27.93
2018-10-19T00:18:41.000Z,34.37
2018-10-19T00:21:16.094Z,33.33
2018-10-19T00:23:50.655Z,37.53
2018-10-19T00:26:25.547Z,36.43
2018-10-19T00:29:00.048Z,37.40
2018-10-19T00:31:34.910Z,37.60
2018-10-19T00:34:09.697Z,35.37
2018-10-19T00:36:44.559Z,36.90
2018-10-19T00:39:19.415Z,34.77
2018-10-19T00:41:54.306Z,32.07
2018-10-19T00:44:29.073Z,33.47
2018-10-19T00:47:03.733Z,34.10
2018-10-19T00:49:38.634Z,28.77
2018-10-19T00:52:13.473Z,34.60
2018-10-19T00:54:48.212Z,33.10
2018-10-19T00:57:23.131Z,37.77
2018-10-19T00:59:58.209Z,36.13
2018-10-19T01:02:32.926Z,32.70
2018-10-19T01:05:07.631Z,34.63
2018-10-19T01:07:42.445Z,31.43
2018-10-19T01:10:21.661Z,35.13
2018-10-19T01:12:57.843Z,32.13
2018-10-19T01:15:32.595Z,39.13
2018-10-19T01:18:07.286Z,44.87
2018-10-19T01:20:42.026Z,43.00
2018-10-19T01:23:17.007Z,46.60
2018-10-19T01:25:51.987Z,43.63
2018-10-19T01:28:26.820Z,43.90
2018-10-19T01:31:01.562Z,43.23
2018-10-19T01:33:36.534Z,39.80
2018-10-19T01:36:11.222Z,40.73
2018-10-19T01:38:45.888Z,38.97
2018-10-19T01:41:20.658Z,38.07
2018-10-19T01:43:55.716Z,40.40
2018-10-19T01:46:30.839Z,36.60
2018-10-19T01:49:05.866Z,38.40
2018-10-19T01:51:40.590Z,37.20
2018-10-19T01:54:15.625Z,38.23
2018-10-19T01:56:50.350Z,43.07
2018-10-19T01:59:25.397Z,44.37
2018-10-19T02:02:00.218Z,54.37
2018-10-19T02:04:35.765Z,39.23
2018-10-19T02:07:10.609Z,39.17
2018-10-19T02:09:45.496Z,40.93
2018-10-19T02:12:20.391Z,46.67
2018-10-19T02:14:55.101Z,42.17
2018-10-19T02:17:30.031Z,42.23
2018-10-19T02:20:04.854Z,46.67
2018-10-19T02:22:39.646Z,47.50
2018-10-19T02:25:14.542Z,43.93
2018-10-19T02:27:49.338Z,42.63
2018-10-19T02:30:24.127Z,41.27
2018-10-19T02:32:59.111Z,42.73
2018-10-19T02:35:34.090Z,48.67
2018-10-19T02:38:08.821Z,49.20
2018-10-19T02:40:43.496Z,45.07
2018-10-19T02:43:18.186Z,46.40
2018-10-19T02:45:52.851Z,42.03
2018-10-19T02:48:27.807Z,45.50
2018-10-19T02:51:02.635Z,46.50
2018-10-19T02:53:37.565Z,44.80
2018-10-19T02:56:12.747Z,47.27
2018-10-19T02:58:47.475Z,43.33
2018-10-19T03:01:22.861Z,60.10
2018-10-19T03:03:57.607Z,49.53
2018-10-19T03:06:32.321Z,82.03
2018-10-19T03:09:09.802Z,76.67
2018-10-19T03:11:44.771Z,61.40
2018-10-19T03:14:20.372Z,85.77
2018-10-19T03:16:55.016Z,66.03
2018-10-19T03:19:29.913Z,68.13
2018-10-19T03:22:05.295Z,58.30
2018-10-19T03:24:40.086Z,230.97
2018-10-19T03:27:15.273Z,88.83
2018-10-19T03:29:50.338Z,99.67
2018-10-19T03:32:25.133Z,79.97
2018-10-19T03:35:00.094Z,76.93
2018-10-19T03:37:35.206Z,79.93
2018-10-19T03:40:10.006Z,222.80
2018-10-19T03:42:44.835Z,78.43
2018-10-19T03:45:20.213Z,74.03
2018-10-19T03:47:55.004Z,67.93
2018-10-19T03:50:29.769Z,62.97
2018-10-19T03:53:04.896Z,69.07
2018-10-19T03:55:39.937Z,73.50
2018-10-19T03:58:14.571Z,72.63
2018-10-19T04:00:49.202Z,70.07
2018-10-19T04:03:24.187Z,68.77
2018-10-19T04:05:59.130Z,67.17
2018-10-19T04:08:34.058Z,66.20
2018-10-19T04:11:08.985Z,238.77
2018-10-19T04:13:44.197Z,304.33
2018-10-19T04:16:19.110Z,101.23
2018-10-19T04:18:54.049Z,156.10
2018-10-19T04:21:28.805Z,83.33
2018-10-19T04:24:04.014Z,62.77
2018-10-19T04:26:38.702Z,148.20
2018-10-19T04:29:13.886Z,88.97
2018-10-19T04:31:48.713Z,143.33
2018-10-19T04:34:23.433Z,96.27
2018-10-19T04:37:02.874Z,87.77
2018-10-19T04:39:37.798Z,90.00
2018-10-19T04:42:13.471Z,83.83
2018-10-19T04:44:48.449Z,79.07
2018-10-19T04:47:23.305Z,72.83
2018-10-19T04:49:58.075Z,65.07
2018-10-19T04:52:32.872Z,62.27
2018-10-19T04:55:10.104Z,56.17
2018-10-19T04:57:44.854Z,57.07
2018-10-19T05:00:20.720Z,92.13
2018-10-19T05:02:55.355Z,110.80
2018-10-19T05:05:30.303Z,70.50
2018-10-19T05:08:05.210Z,109.73
2018-10-19T05:10:40.114Z,116.90
2018-10-19T05:13:14.815Z,163.10
2018-10-19T05:15:49.627Z,189.70
2018-10-19T05:18:24.301Z,128.00
2018-10-19T05:20:59.126Z,126.83
2018-10-19T05:23:33.857Z,74.73
2018-10-19T05:26:08.775Z,91.17
2018-10-19T05:28:43.522Z,116.00
2018-10-19T05:31:18.550Z,132.50
2018-10-19T05:33:55.332Z,139.73
2018-10-19T05:36:30.250Z,235.77
2018-10-19T05:39:07.836Z,170.47
2018-10-19T05:41:42.509Z,101.97
2018-10-19T05:44:17.255Z,132.37
2018-10-19T05:46:52.453Z,109.93
2018-10-19T05:49:27.365Z,161.63
2018-10-19T05:52:02.223Z,122.23
2018-10-19T05:54:37.060Z,118.00
2018-10-19T05:57:11.846Z,217.80
2018-10-19T05:59:46.619Z,223.33
2018-10-19T06:02:22.082Z,168.10
2018-10-19T06:04:56.880Z,135.97
2018-10-19T06:07:31.897Z,87.63
2018-10-19T06:10:07.638Z,86.90
2018-10-19T06:12:42.377Z,90.00
2018-10-19T06:15:17.192Z,84.83
2018-10-19T06:17:51.933Z,80.87
2018-10-19T06:20:26.602Z,80.27
2018-10-19T06:23:01.591Z,180.77
2018-10-19T06:25:37.386Z,286.43
2018-10-19T06:28:12.369Z,247.10
2018-10-19T06:30:47.008Z,231.77
2018-10-19T06:33:22.016Z,232.07
2018-10-19T06:35:56.972Z,235.20
2018-10-19T06:38:31.768Z,341.43
2018-10-19T06:41:06.724Z,281.93
2018-10-19T06:43:41.628Z,298.23
2018-10-19T06:46:16.302Z,271.73
2018-10-19T06:48:51.142Z,254.43
2018-10-19T06:51:26.438Z,201.93
2018-10-19T06:54:01.101Z,331.13
2018-10-19T06:56:36.023Z,415.17
2018-10-19T06:59:11.007Z,350.63
2018-10-19T07:01:45.797Z,255.73
2018-10-19T07:04:20.650Z,296.53
2018-10-19T07:06:55.530Z,393.70
2018-10-19T07:09:30.387Z,390.27
2018-10-19T07:12:06.493Z,307.10
2018-10-19T07:14:41.271Z,337.67
2018-10-19T07:17:16.076Z,230.80
2018-10-19T07:19:50.865Z,289.03
2018-10-19T07:22:25.962Z,311.00
2018-10-19T07:25:00.571Z,352.87
2018-10-19T07:27:35.348Z,305.67
2018-10-19T07:30:10.288Z,319.07
2018-10-19T07:32:45.343Z,252.43
2018-10-19T07:35:20.214Z,189.73
2018-10-19T07:37:55.072Z,165.97
2018-10-19T07:40:30.437Z,206.87
2018-10-19T07:43:05.837Z,163.40
2018-10-19T07:45:41.606Z,144.73
2018-10-19T07:48:16.458Z,163.53
2018-10-19T07:50:51.430Z,173.80
2018-10-19T07:53:26.070Z,152.00
2018-10-19T07:56:00.945Z,173.37
2018-10-19T07:58:35.951Z,133.53
2018-10-19T08:01:10.849Z,172.03
2018-10-19T08:03:46.706Z,142.10
2018-10-19T08:06:21.440Z,133.50
2018-10-19T08:08:56.268Z,152.10
2018-10-19T08:11:31.385Z,146.67
2018-10-19T08:14:06.552Z,125.27
2018-10-19T08:16:41.573Z,123.20
2018-10-19T08:19:16.497Z,134.07
2018-10-19T08:21:51.555Z,121.20
2018-10-19T08:24:26.371Z,119.00
2018-10-19T08:27:01.228Z,133.50
2018-10-19T08:29:35.914Z,110.07
2018-10-19T08:32:10.727Z,133.70
2018-10-19T08:34:45.694Z,139.50
2018-10-19T08:37:20.519Z,109.43
2018-10-19T08:39:55.558Z,136.90
2018-10-19T08:42:30.450Z,104.33
2018-10-19T08:45:06.315Z,104.13
2018-10-19T08:47:41.888Z,118.37
2018-10-19T08:50:16.917Z,108.27
2018-10-19T08:52:51.643Z,105.67
2018-10-19T08:55:26.390Z,111.97
2018-10-19T08:58:01.555Z,100.30
2018-10-19T09:00:36.745Z,87.03
2018-10-19T09:03:11.507Z,84.47
2018-10-19T09:05:46.412Z,82.57
2018-10-19T09:08:21.321Z,87.37
2018-10-19T09:10:56.158Z,84.30
2018-10-19T09:13:31.113Z,86.60
2018-10-19T09:16:06.247Z,87.33
2018-10-19T09:18:41.111Z,92.03
2018-10-19T09:21:16.449Z,92.03
2018-10-19T09:23:51.273Z,92.87
2018-10-19T09:26:25.880Z,90.80
2018-10-19T09:29:00.661Z,92.27
2018-10-19T09:31:35.639Z,88.60
2018-10-19T09:34:10.590Z,97.43
2018-10-19T09:36:45.482Z,85.83
2018-10-19T09:39:20.872Z,90.30
2018-10-19T09:41:55.812Z,90.17
2018-10-19T09:44:30.680Z,86.80
2018-10-19T09:47:06.341Z,93.60
2018-10-19T09:49:41.559Z,92.77
2018-10-19T09:52:16.270Z,87.53
2018-10-19T09:54:50.998Z,85.03
2018-10-19T09:57:25.890Z,81.53
2018-10-19T10:00:00.626Z,86.33
2018-10-19T10:02:35.445Z,81.87
2018-10-19T10:05:10.376Z,89.10
2018-10-19T10:07:45.328Z,86.60
2018-10-19T10:10:20.256Z,92.03
2018-10-19T10:12:55.043Z,88.60
2018-10-19T10:15:30.214Z,93.17
2018-10-19T10:18:05.565Z,89.47
2018-10-19T10:20:40.277Z,84.67
2018-10-19T10:23:15.062Z,83.17
2018-10-19T10:25:50.047Z,88.93
2018-10-19T10:28:24.874Z,85.23
2018-10-19T10:31:00.036Z,80.77
2018-10-19T10:33:34.954Z,82.83
2018-10-19T10:36:09.785Z,84.07
2018-10-19T10:38:44.948Z,80.63
2018-10-19T10:41:19.874Z,80.13
2018-10-19T10:43:54.874Z,80.83
2018-10-19T10:46:29.631Z,81.60
2018-10-19T10:49:04.374Z,81.73
2018-10-19T10:51:39.387Z,78.13
2018-10-19T10:54:14.395Z,80.63
2018-10-19T10:56:49.273Z,80.47
2018-10-19T10:59:23.985Z,81.90
2018-10-19T11:01:58.691Z,76.20
2018-10-19T11:04:33.510Z,75.40
2018-10-19T11:07:08.264Z,70.67
2018-10-19T11:09:43.243Z,67.73
2018-10-19T11:12:18.111Z,70.53
2018-10-19T11:14:52.955Z,68.50
2018-10-19T11:17:27.769Z,68.07
2018-10-19T11:20:02.899Z,63.33
2018-10-19T11:22:38.341Z,61.55
2018-10-19T11:25:13.709Z,62.78
2018-10-19T11:27:49.648Z,62.95
2018-10-19T11:30:25.016Z,65.55
2018-10-19T11:33:00.607Z,63.60
2018-10-19T11:35:35.887Z,62.75
2018-10-19T11:38:11.235Z,60.50
2018-10-19T11:40:46.539Z,64.70
2018-10-19T11:43:21.801Z,62.90
2018-10-19T11:45:57.291Z,65.50
2018-10-19T11:48:32.777Z,63.35
2018-10-19T11:51:08.454Z,61.42
2018-10-19T11:53:43.848Z,62.20
2018-10-19T11:56:19.282Z,64.03
2018-10-19T11:58:54.576Z,61.90
2018-10-19T12:01:29.770Z,61.77
2018-10-19T12:04:05.520Z,62.27
2018-10-19T12:06:40.953Z,63.00
2018-10-19T12:09:16.476Z,66.35
2018-10-19T12:11:52.287Z,64.05
2018-10-19T12:14:27.674Z,66.17
2018-10-19T12:17:03.008Z,64.25
2018-10-19T12:19:38.511Z,61.13
2018-10-19T12:22:13.813Z,63.02
2018-10-19T12:24:50.188Z,63.35
2018-10-19T12:27:25.582Z,62.90
2018-10-19T12:30:01.026Z,61.68
2018-10-19T12:32:36.691Z,62.17
2018-10-19T12:35:13.726Z,63.95
2018-10-19T12:37:48.877Z,64.55
2018-10-19T12:40:24.216Z,62.15
2018-10-19T12:42:59.702Z,62.13
2018-10-19T12:46:46.930Z,61.45
2018-10-19T12:49:23.334Z,60.10
2018-10-19T12:51:58.806Z,62.27
2018-10-19T12:54:34.241Z,62.43
2018-10-19T12:57:09.572Z,63.23
2018-10-19T12:59:44.735Z,60.30
2018-10-19T13:02:20.287Z,61.37
2018-10-19T13:04:55.400Z,58.40
2018-10-19T13:07:30.678Z,63.48
2018-10-19T13:10:06.213Z,64.87
2018-10-19T13:12:41.425Z,60.92
2018-10-19T13:15:16.535Z,63.57
2018-10-19T13:17:51.637Z,61.87
2018-10-19T13:20:26.578Z,60.50
2018-10-19T13:23:02.177Z,61.83
2018-10-19T13:25:37.615Z,62.17
2018-10-19T13:28:13.050Z,60.45
2018-10-19T13:30:48.285Z,60.73
2018-10-19T13:33:23.841Z,61.42
2018-10-19T13:35:59.271Z,60.13
2018-10-19T13:38:34.766Z,59.50
2018-10-19T13:41:09.968Z,57.07
2018-10-19T13:43:45.699Z,58.87
2018-10-19T13:46:21.152Z,59.45
2018-10-19T13:48:56.642Z,59.10
2018-10-19T13:51:32.240Z,57.88
2018-10-19T13:54:07.392Z,55.93
2018-10-19T13:56:42.829Z,56.18
2018-10-19T13:59:17.881Z,61.85
2018-10-19T14:01:52.951Z,58.27
2018-10-19T14:04:28.232Z,57.47
2018-10-19T14:07:03.782Z,58.17
2018-10-19T14:09:38.969Z,65.47
2018-10-19T14:12:13.943Z,59.30
2018-10-19T14:14:49.022Z,59.50
2018-10-19T14:17:24.088Z,56.53
2018-10-19T14:19:59.636Z,56.65
2018-10-19T14:22:35.064Z,59.00
2018-10-19T14:25:11.849Z,58.80
2018-10-19T14:27:47.175Z,56.77
2018-10-19T14:30:22.846Z,59.08
2018-10-19T14:32:58.690Z,57.17
2018-10-19T14:35:34.248Z,59.38
2018-10-19T14:38:09.812Z,57.98
2018-10-19T14:40:45.287Z,59.65
2018-10-19T14:43:20.623Z,59.90
2018-10-19T14:45:55.867Z,58.80
2018-10-19T14:48:31.951Z,58.33
2018-10-19T14:51:07.488Z,59.20
2018-10-19T14:53:43.427Z,57.98
2018-10-19T14:56:18.898Z,58.10
2018-10-19T14:58:54.533Z,59.58
2018-10-19T15:01:30.007Z,57.93
2018-10-19T15:04:07.041Z,61.00
2018-10-19T15:06:42.754Z,63.80
2018-10-19T15:09:18.325Z,64.97
2018-10-19T15:11:53.943Z,62.43
2018-10-19T15:14:30.310Z,62.98
2018-10-19T15:17:06.458Z,66.25
2018-10-19T15:19:41.782Z,63.95
2018-10-19T15:22:17.242Z,62.83
2018-10-19T15:24:52.859Z,66.42
2018-10-19T15:27:28.230Z,67.32
2018-10-19T15:30:03.654Z,66.60
2018-10-19T15:32:39.239Z,66.02
2018-10-19T15:35:14.577Z,66.80
2018-10-19T15:37:49.927Z,66.62
2018-10-19T15:40:25.405Z,59.23
2018-10-19T15:43:00.836Z,63.83
2018-10-19T15:45:36.094Z,68.40
2018-10-19T15:48:11.889Z,67.12
2018-10-19T15:50:47.601Z,66.60
2018-10-19T15:53:22.950Z,62.83
2018-10-19T15:55:58.311Z,64.53
2018-10-19T15:58:33.953Z,68.95
2018-10-19T16:01:09.718Z,70.62
2018-10-19T16:03:45.309Z,75.05
2018-10-19T16:06:20.790Z,66.35
2018-10-19T16:08:56.054Z,71.00
2018-10-19T16:11:32.469Z,75.20
2018-10-19T16:14:07.324Z,76.00
2018-10-19T16:16:42.205Z,76.60
2018-10-19T16:19:17.141Z,80.77
2018-10-19T16:21:51.947Z,78.17
2018-10-19T16:24:26.904Z,74.37
2018-10-19T16:27:01.995Z,71.90
2018-10-19T16:29:36.957Z,71.70
2018-10-19T16:32:12.418Z,69.90
2018-10-19T16:34:47.219Z,75.30
2018-10-19T16:37:22.234Z,78.43
2018-10-19T16:39:57.079Z,76.13
2018-10-19T16:42:32.021Z,80.43
2018-10-19T16:45:08.224Z,75.23
2018-10-19T16:47:43.180Z,70.07
2018-10-19T16:50:18.156Z,75.63
2018-10-19T16:52:53.066Z,78.80
2018-10-19T16:55:28.070Z,77.30
2018-10-19T16:58:03.012Z,76.00
2018-10-19T17:00:37.798Z,84.27
2018-10-19T17:03:12.993Z,82.57
2018-10-19T17:05:48.054Z,80.30
2018-10-19T17:08:22.902Z,77.97
2018-10-19T17:10:57.683Z,83.77
2018-10-19T17:13:32.405Z,84.70
2018-10-19T17:16:07.201Z,83.53
2018-10-19T17:18:42.049Z,84.87
2018-10-19T17:21:16.988Z,78.57
2018-10-19T17:23:51.954Z,84.03
2018-10-19T17:26:26.729Z,76.60
2018-10-19T17:29:01.508Z,80.47
2018-10-19T17:31:36.607Z,79.80
2018-10-19T17:34:11.619Z,81.67
2018-10-19T17:36:46.398Z,79.57
2018-10-19T17:39:21.137Z,75.20
2018-10-19T17:41:55.881Z,76.40
2018-10-19T17:44:30.777Z,72.90
2018-10-19T17:47:05.999Z,77.67
2018-10-19T17:49:41.160Z,81.10
2018-10-19T17:52:16.470Z,79.83
2018-10-19T17:54:51.251Z,82.33
2018-10-19T17:57:26.261Z,77.13
2018-10-19T18:00:01.057Z,73.97
2018-10-19T18:02:36.034Z,67.03
2018-10-19T18:05:10.824Z,72.10
2018-10-19T18:07:45.700Z,69.10
2018-10-19T18:10:20.663Z,78.33
2018-10-19T18:12:55.297Z,82.13
2018-10-19T18:15:30.358Z,81.63
2018-10-19T18:18:05.643Z,78.10
2018-10-19T18:20:40.385Z,80.00
2018-10-19T18:23:15.379Z,83.57
2018-10-19T18:25:50.218Z,74.40
2018-10-19T18:28:24.999Z,76.80
2018-10-19T18:31:00.001Z,75.80
2018-10-19T18:33:34.864Z,81.40
2018-10-19T18:36:09.734Z,77.13
2018-10-19T18:38:44.541Z,78.00
2018-10-19T18:41:19.762Z,76.67
2018-10-19T18:43:54.858Z,84.27
2018-10-19T18:46:29.944Z,74.07
2018-10-19T18:49:04.768Z,73.63
2018-10-19T18:51:39.707Z,80.17
2018-10-19T18:54:14.472Z,81.40
2018-10-19T18:56:49.232Z,88.30
2018-10-19T18:59:23.938Z,81.03
2018-10-19T19:01:58.643Z,83.97
2018-10-19T19:04:33.809Z,72.73
2018-10-19T19:07:08.642Z,80.43
2018-10-19T19:09:47.638Z,79.77
2018-10-19T19:12:22.749Z,81.47
2018-10-19T19:14:57.523Z,74.87
2018-10-19T19:17:32.530Z,78.60
2018-10-19T19:20:13.525Z,75.90
2018-10-19T19:22:48.492Z,73.33
2018-10-19T19:25:28.672Z,71.93
2018-10-19T19:28:03.585Z,87.33
2018-10-19T19:30:38.366Z,80.57
2018-10-19T19:33:18.291Z,81.90
2018-10-19T19:35:53.018Z,81.47
2018-10-19T19:38:27.873Z,73.17
2018-10-19T19:41:07.868Z,73.97
2018-10-19T19:43:42.813Z,74.27
2018-10-19T19:46:17.746Z,68.63
2018-10-19T19:48:57.948Z,71.73
2018-10-19T19:51:32.843Z,68.63
2018-10-19T19:54:09.441Z,71.23
2018-10-19T19:56:44.583Z,64.53
2018-10-19T19:59:20.096Z,75.77
2018-10-19T20:01:54.937Z,70.50
2018-10-19T20:04:29.821Z,72.23
2018-10-19T20:07:04.974Z,66.13
2018-10-19T20:09:39.689Z,63.33
2018-10-19T20:12:14.510Z,70.93
2018-10-19T20:14:49.617Z,64.67
2018-10-19T20:17:24.456Z,68.40
2018-10-19T20:19:59.096Z,67.47
2018-10-19T20:22:33.828Z,64.17
2018-10-19T20:25:10.066Z,62.60
2018-10-19T20:27:44.830Z,63.47
2018-10-19T20:30:19.729Z,66.27
2018-10-19T20:32:54.553Z,70.20
2018-10-19T20:35:29.597Z,71.53
2018-10-19T20:38:04.324Z,68.07
2018-10-19T20:40:39.305Z,65.40
2018-10-19T20:43:14.205Z,73.70
2018-10-19T20:45:49.066Z,75.27
2018-10-19T20:48:23.892Z,74.43
2018-10-19T20:50:58.722Z,76.10
2018-10-19T20:53:33.416Z,77.97
2018-10-19T20:56:08.170Z,75.00
2018-10-19T20:58:43.263Z,77.30
2018-10-19T21:01:17.922Z,70.67
2018-10-19T21:03:52.944Z,74.00
2018-10-19T21:06:27.857Z,67.30
2018-10-19T21:09:02.683Z,67.70
2018-10-19T21:11:38.350Z,70.53
2018-10-19T21:14:13.236Z,69.17
2018-10-19T21:16:48.126Z,70.53
2018-10-19T21:19:22.994Z,78.37
2018-10-19T21:21:57.974Z,75.60
2018-10-19T21:24:33.074Z,79.27
2018-10-19T21:27:07.899Z,68.80
2018-10-19T21:29:42.928Z,66.27
2018-10-19T21:32:17.923Z,72.73
2018-10-19T21:34:53.170Z,69.37
2018-10-19T21:37:28.171Z,74.87
2018-10-19T21:40:03.410Z,79.37
2018-10-19T21:42:38.447Z,78.73
2018-10-19T21:45:13.298Z,80.47
2018-10-19T21:47:48.134Z,82.80
2018-10-19T21:50:23.678Z,71.10
2018-10-19T21:52:58.509Z,71.63
2018-10-19T21:55:33.388Z,69.33
2018-10-19T21:58:08.325Z,72.43
2018-10-19T22:00:43.299Z,65.63
2018-10-19T22:03:18.017Z,67.73
2018-10-19T22:05:52.765Z,68.53
2018-10-19T22:08:27.446Z,66.33
2018-10-19T22:11:02.404Z,79.03
2018-10-19T22:13:37.385Z,71.23
2018-10-19T22:16:12.223Z,71.37
2018-10-19T22:18:46.922Z,73.70
2018-10-19T22:21:21.737Z,78.37
2018-10-19T22:23:56.466Z,81.30
2018-10-19T22:26:31.591Z,80.57
2018-10-19T22:29:06.281Z,90.47
2018-10-19T22:31:41.385Z,84.50
2018-10-19T22:34:16.410Z,81.97
2018-10-19T22:36:51.186Z,83.10
2018-10-19T22:39:25.773Z,79.77
2018-10-19T22:42:00.692Z,77.13
2018-10-19T22:44:35.762Z,90.13
2018-10-19T22:47:10.554Z,90.97
2018-10-19T22:49:45.727Z,105.97
2018-10-19T22:52:20.527Z,104.30
2018-10-19T22:54:55.484Z,95.80
2018-10-19T22:57:30.486Z,87.30
2018-10-19T23:00:06.229Z,89.57
2018-10-19T23:02:41.276Z,101.70
2018-10-19T23:05:16.308Z,110.23
2018-10-19T23:07:51.122Z,161.40
2018-10-19T23:10:25.788Z,122.63
2018-10-19T23:13:00.543Z,91.27
2018-10-19T23:15:35.242Z,80.20
2018-10-19T23:18:09.950Z,81.67
2018-10-19T23:20:44.991Z,109.07
2018-10-19T23:23:19.719Z,96.43
2018-10-19T23:25:54.541Z,88.37
2018-10-19T23:28:29.277Z,85.83
2018-10-19T23:31:04.125Z,81.87
2018-10-19T23:33:38.849Z,97.03
2018-10-19T23:36:13.717Z,104.47
2018-10-19T23:38:48.601Z,107.30
2018-10-19T23:41:23.275Z,101.80
2018-10-19T23:43:57.905Z,92.63
2018-10-19T23:46:34.556Z,93.83
2018-10-19T23:49:09.875Z,126.70
2018-10-19T23:51:44.782Z,129.27
2018-10-19T23:54:19.610Z,115.10
2018-10-19T23:56:54.501Z,98.77
2018-10-19T23:59:29.306Z,93.40
